createdAt,value
2019-02-23T00:01:02.122Z,9.17
2019-02-23T00:03:31.311Z,9.63
2019-02-23T00:06:00.540Z,12.03
2019-02-23T00:08:29.743Z,10.07
2019-02-23T00:10:58.928Z,10.77
2019-02-23T00:13:28.166Z,7.50
2019-02-23T00:15:57.443Z,10.23
2019-02-23T00:18:26.795Z,8.17
2019-02-23T00:20:55.971Z,9.43
2019-02-23T00:23:25.210Z,8.67
2019-02-23T00:25:54.403Z,6.37
2019-02-23T00:28:23.581Z,8.07
2019-02-23T00:30:53.891Z,8.27
2019-02-23T00:33:23.083Z,6.23
2019-02-23T00:35:52.314Z,9.20
2019-02-23T00:38:21.519Z,8.10
2019-02-23T00:40:50.698Z,6.73
2019-02-23T00:43:19.903Z,6.97
2019-02-23T00:45:49.103Z,8.37
2019-02-23T00:48:18.347Z,7.50
2019-02-23T00:50:47.541Z,7.57
2019-02-23T00:53:16.749Z,7.67
2019-02-23T00:55:45.973Z,8.07
2019-02-23T00:58:15.248Z,6.10
2019-02-23T01:00:44.459Z,6.37
2019-02-23T01:03:13.640Z,8.70
2019-02-23T01:05:42.836Z,10.80
2019-02-23T01:08:12.039Z,6.67
2019-02-23T01:10:41.311Z,7.53
2019-02-23T01:13:10.514Z,7.47
2019-02-23T01:15:39.705Z,10.47
2019-02-23T01:18:08.917Z,6.93
2019-02-23T01:20:38.111Z,7.57
2019-02-23T01:23:07.300Z,6.63
2019-02-23T01:25:36.479Z,8.10
2019-02-23T01:28:05.762Z,8.37
2019-02-23T01:30:34.976Z,11.13
2019-02-23T01:33:04.180Z,8.50
2019-02-23T01:35:33.402Z,8.57
2019-02-23T01:38:02.571Z,7.27
2019-02-23T01:40:31.770Z,7.43
2019-02-23T01:43:01.040Z,7.53
2019-02-23T01:45:30.255Z,9.40
2019-02-23T01:47:59.464Z,9.10
2019-02-23T01:50:28.855Z,10.27
2019-02-23T01:52:58.055Z,7.80
2019-02-23T01:55:27.259Z,10.27
2019-02-23T01:57:56.455Z,9.40
2019-02-23T02:00:26.127Z,10.13
2019-02-23T02:02:55.314Z,12.20
2019-02-23T02:05:24.599Z,8.83
2019-02-23T02:07:53.803Z,16.70
2019-02-23T02:10:23.378Z,14.30
2019-02-23T02:12:52.610Z,12.40
2019-02-23T02:15:21.884Z,12.93
2019-02-23T02:17:51.088Z,12.70
2019-02-23T02:20:20.282Z,14.93
2019-02-23T02:22:49.512Z,12.57
2019-02-23T02:25:18.733Z,14.57
2019-02-23T02:27:47.976Z,11.20
2019-02-23T02:30:17.192Z,12.07
2019-02-23T02:32:46.379Z,15.33
2019-02-23T02:35:17.580Z,11.83
2019-02-23T02:37:46.735Z,12.50
2019-02-23T02:40:15.919Z,11.63
2019-02-23T02:42:45.146Z,14.23
2019-02-23T02:45:14.335Z,13.17
2019-02-23T02:47:43.564Z,11.80
2019-02-23T02:50:23.980Z,13.30
2019-02-23T02:52:43.721Z,10.60
2019-02-23T02:55:12.928Z,12.93
2019-02-23T02:57:42.127Z,11.87
2019-02-23T03:00:12.655Z,11.17
2019-02-23T03:02:41.862Z,13.50
2019-02-23T03:05:11.320Z,10.77
2019-02-23T03:07:40.504Z,10.67
2019-02-23T03:10:09.719Z,10.73
2019-02-23T03:12:38.903Z,11.73
2019-02-23T03:15:08.371Z,11.80
2019-02-23T03:17:37.574Z,9.93
2019-02-23T03:20:08.035Z,10.20
2019-02-23T03:22:37.233Z,9.90
2019-02-23T03:25:06.878Z,11.03
2019-02-23T03:27:36.072Z,10.20
2019-02-23T03:30:06.224Z,14.33
2019-02-23T03:32:35.436Z,9.70
2019-02-23T03:35:04.655Z,11.13
2019-02-23T03:37:33.896Z,8.97
2019-02-23T03:40:03.092Z,9.47
2019-02-23T03:42:32.296Z,12.33
2019-02-23T03:45:01.515Z,10.30
2019-02-23T03:47:30.768Z,10.73
2019-02-23T03:49:59.979Z,10.77
2019-02-23T03:52:29.220Z,8.60
2019-02-23T03:54:58.431Z,10.00
2019-02-23T03:57:27.682Z,8.07
2019-02-23T03:59:57.010Z,9.37
2019-02-23T04:02:26.257Z,11.40
2019-02-23T04:04:55.428Z,9.63
2019-02-23T04:07:24.623Z,8.20
2019-02-23T04:09:53.835Z,9.13
2019-02-23T04:12:23.033Z,8.73
2019-02-23T04:14:52.306Z,9.40
2019-02-23T04:17:21.488Z,9.90
2019-02-23T04:19:50.729Z,10.60
2019-02-23T04:22:19.945Z,8.93
2019-02-23T04:24:49.129Z,9.03
2019-02-23T04:27:18.359Z,9.10
2019-02-23T04:29:47.557Z,8.87
2019-02-23T04:32:16.775Z,9.30
2019-02-23T04:34:46.006Z,8.80
2019-02-23T04:37:15.233Z,8.40
2019-02-23T04:39:44.430Z,10.17
2019-02-23T04:42:13.682Z,9.40
2019-02-23T04:44:42.887Z,9.23
2019-02-23T04:47:12.115Z,11.30
2019-02-23T04:49:41.331Z,10.27
2019-02-23T04:52:10.625Z,10.53
2019-02-23T04:54:40.275Z,8.97
2019-02-23T04:57:09.487Z,8.67
2019-02-23T04:59:38.693Z,9.13
2019-02-23T05:02:07.984Z,9.30
2019-02-23T05:04:37.174Z,10.27
2019-02-23T05:07:06.399Z,8.97
2019-02-23T05:09:35.603Z,9.13
2019-02-23T05:12:04.775Z,9.37
2019-02-23T05:14:34.141Z,7.97
2019-02-23T05:17:03.335Z,7.90
2019-02-23T05:19:32.563Z,10.47
2019-02-23T05:22:01.772Z,9.33
2019-02-23T05:24:30.991Z,9.70
2019-02-23T05:27:00.272Z,6.30
2019-02-23T05:29:29.467Z,10.93
2019-02-23T05:31:58.656Z,8.17
2019-02-23T05:34:27.908Z,7.53
2019-02-23T05:36:57.115Z,11.30
2019-02-23T05:39:26.313Z,8.13
2019-02-23T05:41:55.543Z,8.07
2019-02-23T05:44:24.859Z,9.17
2019-02-23T05:46:54.107Z,8.13
2019-02-23T05:49:23.320Z,7.97
2019-02-23T05:51:52.713Z,7.57
2019-02-23T05:54:21.910Z,8.40
2019-02-23T05:56:51.167Z,8.30
2019-02-23T05:59:20.382Z,8.03
2019-02-23T06:01:49.656Z,9.10
2019-02-23T06:04:18.873Z,6.67
2019-02-23T06:06:48.079Z,7.93
2019-02-23T06:09:17.309Z,8.30
2019-02-23T06:11:46.504Z,7.80
2019-02-23T06:14:15.776Z,9.00
2019-02-23T06:16:44.971Z,8.27
2019-02-23T06:19:14.185Z,9.17
2019-02-23T06:21:52.971Z,7.40
2019-02-23T06:24:14.250Z,7.60
2019-02-23T06:26:43.364Z,10.03
2019-02-23T06:29:12.596Z,11.27
2019-02-23T06:31:41.799Z,9.93
2019-02-23T06:34:16.362Z,11.77
2019-02-23T06:36:41.880Z,9.73
2019-02-23T06:39:11.098Z,10.90
2019-02-23T06:41:40.295Z,10.93
2019-02-23T06:44:09.507Z,11.03
2019-02-23T06:46:38.711Z,11.03
2019-02-23T06:49:07.962Z,8.77
2019-02-23T06:51:37.159Z,9.80
2019-02-23T06:54:06.370Z,9.87
2019-02-23T06:56:35.546Z,10.83
2019-02-23T06:59:04.773Z,7.23
2019-02-23T07:01:33.961Z,12.10
2019-02-23T07:04:03.185Z,7.93
2019-02-23T07:06:32.385Z,9.27
2019-02-23T07:09:01.600Z,9.20
2019-02-23T07:11:30.808Z,8.33
2019-02-23T07:14:00.052Z,8.57
2019-02-23T07:16:29.265Z,9.77
2019-02-23T07:18:58.487Z,10.03
2019-02-23T07:21:28.348Z,9.10
2019-02-23T07:23:57.557Z,8.70
2019-02-23T07:26:26.768Z,7.73
2019-02-23T07:28:55.975Z,12.93
2019-02-23T07:31:25.220Z,10.17
2019-02-23T07:33:54.508Z,10.60
2019-02-23T07:36:23.813Z,7.43
2019-02-23T07:38:53.031Z,9.53
2019-02-23T07:41:22.252Z,8.57
2019-02-23T07:43:51.464Z,8.97
2019-02-23T07:46:20.688Z,13.50
2019-02-23T07:48:49.918Z,11.63
2019-02-23T07:51:19.215Z,10.53
2019-02-23T07:53:48.423Z,13.50
2019-02-23T07:56:17.719Z,12.13
2019-02-23T07:58:46.933Z,12.50
2019-02-23T08:01:16.179Z,13.93
2019-02-23T08:03:45.382Z,15.17
2019-02-23T08:06:14.616Z,12.40
2019-02-23T08:08:43.808Z,10.97
2019-02-23T08:11:13.059Z,12.23
2019-02-23T08:13:42.171Z,17.97
2019-02-23T08:16:11.419Z,15.97
2019-02-23T08:18:40.619Z,13.97
2019-02-23T08:21:09.812Z,16.60
2019-02-23T08:23:39.039Z,15.73
2019-02-23T08:26:09.173Z,12.13
2019-02-23T08:28:38.402Z,15.10
2019-02-23T08:31:07.598Z,16.53
2019-02-23T08:33:36.808Z,15.20
2019-02-23T08:36:05.983Z,15.53
2019-02-23T08:38:35.216Z,14.27
2019-02-23T08:41:04.446Z,13.83
2019-02-23T08:43:33.580Z,14.50
2019-02-23T08:46:02.789Z,14.37
2019-02-23T08:48:33.451Z,15.63
2019-02-23T08:51:02.872Z,17.10
2019-02-23T08:53:32.101Z,14.57
2019-02-23T08:56:01.319Z,13.03
2019-02-23T08:58:30.558Z,12.70
2019-02-23T09:00:59.767Z,13.37
2019-02-23T09:03:28.989Z,14.43
2019-02-23T09:05:58.211Z,13.10
2019-02-23T09:08:27.443Z,12.53
2019-02-23T09:10:56.661Z,13.43
2019-02-23T09:13:25.980Z,11.00
2019-02-23T09:15:55.192Z,14.03
2019-02-23T09:18:24.492Z,12.33
2019-02-23T09:20:53.691Z,11.33
2019-02-23T09:23:22.923Z,11.17
2019-02-23T09:25:52.195Z,11.43
2019-02-23T09:28:21.475Z,15.37
2019-02-23T09:30:50.779Z,12.90
2019-02-23T09:33:20.066Z,10.13
2019-02-23T09:35:49.296Z,12.20
2019-02-23T09:38:18.487Z,12.13
2019-02-23T09:40:47.647Z,13.83
2019-02-23T09:43:17.830Z,13.23
2019-02-23T09:45:47.261Z,13.93
2019-02-23T09:48:16.537Z,11.37
2019-02-23T09:50:45.764Z,12.53
2019-02-23T09:53:14.948Z,13.70
2019-02-23T09:55:44.172Z,14.20
2019-02-23T09:58:13.470Z,13.93
2019-02-23T10:00:42.704Z,11.30
2019-02-23T10:03:11.923Z,11.33
2019-02-23T10:05:41.152Z,11.13
2019-02-23T10:08:10.362Z,12.80
2019-02-23T10:10:39.591Z,13.60
2019-02-23T10:13:08.807Z,13.20
2019-02-23T10:15:38.023Z,10.77
2019-02-23T10:18:07.213Z,12.30
2019-02-23T10:20:36.524Z,12.60
2019-02-23T10:23:05.784Z,10.73
2019-02-23T10:25:35.025Z,10.20
2019-02-23T10:28:04.227Z,10.77
2019-02-23T10:30:33.441Z,9.27
2019-02-23T10:33:02.655Z,10.93
2019-02-23T10:35:31.880Z,11.60
2019-02-23T10:38:01.082Z,10.23
2019-02-23T10:40:30.334Z,10.00
2019-02-23T10:43:00.667Z,12.07
2019-02-23T10:45:29.871Z,11.50
2019-02-23T10:47:59.119Z,11.63
2019-02-23T10:50:28.309Z,10.53
2019-02-23T10:52:57.517Z,9.37
2019-02-23T10:55:26.744Z,11.47
2019-02-23T10:57:55.987Z,11.00
2019-02-23T11:00:25.656Z,10.73
2019-02-23T11:02:54.893Z,8.20
2019-02-23T11:05:24.175Z,10.03
2019-02-23T11:07:53.474Z,9.40
2019-02-23T11:10:23.143Z,10.17
2019-02-23T11:12:52.359Z,9.00
2019-02-23T11:15:22.342Z,10.53
2019-02-23T11:17:51.575Z,12.20
2019-02-23T11:20:21.139Z,8.33
2019-02-23T11:22:50.353Z,9.17
2019-02-23T11:25:19.580Z,9.83
2019-02-23T11:27:48.791Z,9.37
2019-02-23T11:30:18.046Z,11.67
2019-02-23T11:32:47.252Z,10.63
2019-02-23T11:35:17.648Z,9.33
2019-02-23T11:37:47.088Z,9.07
2019-02-23T11:40:16.334Z,9.60
2019-02-23T11:42:45.504Z,9.17
2019-02-23T11:45:14.816Z,8.40
2019-02-23T11:47:44.066Z,7.13
2019-02-23T11:50:13.384Z,9.30
2019-02-23T11:52:42.586Z,8.47
2019-02-23T11:55:11.811Z,7.53
2019-02-23T11:57:40.995Z,7.53
2019-02-23T12:00:10.435Z,9.03
2019-02-23T12:02:39.629Z,7.83
2019-02-23T12:05:09.566Z,13.37
2019-02-23T12:07:38.747Z,9.27
2019-02-23T12:10:09.975Z,9.57
2019-02-23T12:12:39.253Z,9.30
2019-02-23T12:15:08.817Z,8.73
2019-02-23T12:17:38.016Z,9.63
2019-02-23T12:20:07.528Z,10.23
2019-02-23T12:22:36.740Z,10.57
2019-02-23T12:25:06.035Z,10.27
2019-02-23T12:27:35.233Z,7.90
2019-02-23T12:30:04.467Z,6.77
2019-02-23T12:32:33.652Z,8.60
2019-02-23T12:35:02.853Z,7.77
2019-02-23T12:37:32.074Z,10.27
2019-02-23T12:40:01.207Z,9.57
2019-02-23T12:42:30.424Z,8.97
2019-02-23T12:44:59.618Z,9.40
2019-02-23T12:47:28.836Z,9.13
2019-02-23T12:49:58.044Z,8.33
2019-02-23T12:52:27.251Z,8.27
2019-02-23T12:54:56.455Z,7.23
2019-02-23T12:57:25.667Z,11.43
2019-02-23T12:59:54.872Z,9.60
2019-02-23T13:02:24.080Z,8.80
2019-02-23T13:04:53.297Z,9.33
2019-02-23T13:07:22.512Z,8.47
2019-02-23T13:09:53.892Z,9.33
2019-02-23T13:12:31.615Z,7.50
2019-02-23T13:15:08.167Z,8.93
2019-02-23T13:18:12.135Z,6.77
2019-02-23T13:21:16.291Z,7.87
2019-02-23T13:24:28.561Z,10.53
2019-02-23T13:27:47.516Z,8.57
2019-02-23T13:30:52.367Z,9.67
2019-02-23T13:34:03.743Z,9.40
2019-02-23T13:37:29.087Z,6.27
2019-02-23T13:40:20.812Z,5.97
2019-02-23T13:43:24.060Z,6.40
2019-02-23T13:46:16.392Z,7.77
2019-02-23T13:49:21.499Z,9.03
2019-02-23T13:52:16.831Z,7.73
2019-02-23T13:55:12.592Z,5.77
2019-02-23T13:58:25.867Z,7.63
2019-02-23T14:01:34.427Z,6.57
2019-02-23T14:04:40.443Z,5.87
2019-02-23T14:08:06.631Z,10.90
2019-02-23T14:11:08.785Z,6.50
2019-02-23T14:14:31.514Z,5.73
2019-02-23T14:17:26.605Z,5.83
2019-02-23T14:20:37.551Z,6.27
2019-02-23T14:23:34.320Z,5.67
2019-02-23T14:26:49.581Z,5.37
2019-02-23T14:29:59.839Z,7.67
2019-02-23T14:32:54.412Z,5.70
2019-02-23T14:35:40.753Z,8.90
2019-02-23T14:38:19.154Z,6.93
2019-02-23T14:41:16.840Z,5.90
2019-02-23T14:44:27.558Z,7.97
2019-02-23T14:47:31.155Z,7.10
2019-02-23T14:50:31.690Z,6.43
2019-02-23T14:53:30.300Z,7.00
2019-02-23T14:56:39.688Z,4.23
2019-02-23T14:59:34.260Z,5.87
2019-02-23T15:02:59.036Z,8.00
2019-02-23T15:06:04.406Z,7.83
2019-02-23T15:09:20.879Z,9.50
2019-02-23T15:12:18.071Z,7.73
2019-02-23T15:15:37.930Z,6.80
2019-02-23T15:18:33.764Z,7.87
2019-02-23T15:21:34.393Z,6.70
2019-02-23T15:24:49.154Z,7.23
2019-02-23T15:27:52.404Z,6.67
2019-02-23T15:30:58.907Z,6.70
2019-02-23T15:34:20.244Z,7.33
2019-02-23T15:37:20.224Z,8.97
2019-02-23T15:40:20.973Z,7.17
2019-02-23T15:43:15.321Z,9.20
2019-02-23T15:46:30.583Z,9.57
2019-02-23T15:49:31.318Z,9.90
2019-02-23T15:52:02.129Z,9.13
2019-02-23T15:54:31.297Z,9.47
2019-02-23T15:57:00.566Z,10.23
2019-02-23T15:59:29.739Z,10.50
2019-02-23T16:01:58.959Z,11.27
2019-02-23T16:04:28.164Z,8.30
2019-02-23T16:06:57.387Z,8.83
2019-02-23T16:09:26.651Z,13.70
2019-02-23T16:11:55.910Z,13.57
2019-02-23T16:14:25.114Z,10.80
2019-02-23T16:16:54.309Z,9.93
2019-02-23T16:19:23.591Z,9.03
2019-02-23T16:21:53.148Z,9.33
2019-02-23T16:24:22.415Z,9.00
2019-02-23T16:26:51.686Z,11.57
2019-02-23T16:29:20.987Z,11.70
2019-02-23T16:31:50.207Z,8.97
2019-02-23T16:34:19.453Z,10.13
2019-02-23T16:36:48.643Z,9.43
2019-02-23T16:39:17.850Z,9.23
2019-02-23T16:41:47.039Z,10.57
2019-02-23T16:44:16.331Z,9.30
2019-02-23T16:46:46.394Z,8.67
2019-02-23T16:49:16.058Z,10.40
2019-02-23T16:51:45.189Z,9.43
2019-02-23T16:54:14.451Z,11.37
2019-02-23T16:56:43.667Z,10.23
2019-02-23T16:59:12.854Z,9.30
2019-02-23T17:01:42.133Z,9.13
2019-02-23T17:04:11.351Z,9.47
2019-02-23T17:06:40.578Z,10.03
2019-02-23T17:09:10.517Z,11.13
2019-02-23T17:11:39.657Z,10.73
2019-02-23T17:14:08.869Z,12.23
2019-02-23T17:16:38.101Z,12.53
2019-02-23T17:19:07.326Z,11.23
2019-02-23T17:21:36.515Z,12.73
2019-02-23T17:24:05.728Z,11.27
2019-02-23T17:26:36.815Z,12.57
2019-02-23T17:29:05.803Z,11.97
2019-02-23T17:31:35.008Z,14.53
2019-02-23T17:34:04.244Z,9.93
2019-02-23T17:36:33.423Z,11.10
2019-02-23T17:39:02.641Z,11.23
2019-02-23T17:41:32.023Z,11.63
2019-02-23T17:44:01.396Z,11.50
2019-02-23T17:46:30.592Z,14.63
2019-02-23T17:48:59.811Z,11.13
2019-02-23T17:51:29.024Z,12.97
2019-02-23T17:53:58.306Z,13.97
2019-02-23T17:56:27.549Z,12.73
2019-02-23T17:58:56.796Z,11.93
2019-02-23T18:01:26.109Z,12.57
2019-02-23T18:03:55.328Z,13.83
2019-02-23T18:06:24.561Z,14.20
2019-02-23T18:08:53.851Z,16.83
2019-02-23T18:11:23.060Z,17.33
2019-02-23T18:13:52.307Z,18.80
2019-02-23T18:16:21.531Z,21.87
2019-02-23T18:18:50.744Z,21.70
2019-02-23T18:21:19.955Z,19.47
2019-02-23T18:23:49.208Z,17.57
2019-02-23T18:26:21.112Z,16.57
2019-02-23T18:28:49.251Z,20.47
2019-02-23T18:31:18.548Z,21.00
2019-02-23T18:33:47.771Z,22.73
2019-02-23T18:36:17.072Z,19.90
2019-02-23T18:38:46.325Z,15.57
2019-02-23T18:41:15.595Z,22.53
2019-02-23T18:43:44.789Z,18.10
2019-02-23T18:46:14.146Z,14.73
2019-02-23T18:48:43.456Z,13.07
2019-02-23T18:51:12.703Z,13.10
2019-02-23T18:53:41.949Z,15.33
2019-02-23T18:56:11.164Z,15.27
2019-02-23T18:58:40.386Z,14.77
2019-02-23T19:01:09.616Z,15.60
2019-02-23T19:03:38.817Z,16.20
2019-02-23T19:06:08.051Z,12.37
2019-02-23T19:08:37.243Z,15.07
2019-02-23T19:11:06.433Z,16.27
2019-02-23T19:13:35.644Z,17.77
2019-02-23T19:16:04.876Z,14.13
2019-02-23T19:18:34.163Z,15.87
2019-02-23T19:21:03.372Z,14.67
2019-02-23T19:23:32.555Z,17.23
2019-02-23T19:26:01.839Z,24.90
2019-02-23T19:28:31.051Z,16.43
2019-02-23T19:31:00.235Z,15.87
2019-02-23T19:33:29.406Z,15.93
2019-02-23T19:35:58.747Z,16.20
2019-02-23T19:38:28.059Z,14.23
2019-02-23T19:40:57.334Z,12.43
2019-02-23T19:43:26.515Z,16.20
2019-02-23T19:45:55.746Z,16.40
2019-02-23T19:48:24.988Z,17.77
2019-02-23T19:50:58.101Z,16.67
2019-02-23T19:53:27.327Z,18.83
2019-02-23T19:55:56.446Z,18.80
2019-02-23T19:58:25.712Z,21.70
2019-02-23T20:00:54.919Z,16.50
2019-02-23T20:03:24.141Z,11.53
2019-02-23T20:05:53.500Z,30.30
2019-02-23T20:08:22.732Z,22.07
2019-02-23T20:10:51.975Z,30.37
2019-02-23T20:13:21.185Z,31.93
2019-02-23T20:15:50.428Z,26.27
2019-02-23T20:18:19.664Z,18.63
2019-02-23T20:20:48.896Z,79.73
2019-02-23T20:23:18.204Z,42.27
2019-02-23T20:25:47.415Z,21.20
2019-02-23T20:28:16.650Z,15.23
2019-02-23T20:30:45.851Z,13.93
2019-02-23T20:33:15.050Z,13.60
2019-02-23T20:35:44.273Z,13.23
2019-02-23T20:38:13.461Z,12.37
2019-02-23T20:40:42.668Z,14.67
2019-02-23T20:43:11.848Z,12.73
2019-02-23T20:45:41.071Z,15.67
2019-02-23T20:48:10.313Z,15.37
2019-02-23T20:50:40.230Z,13.73
2019-02-23T20:53:09.635Z,12.10
2019-02-23T20:55:38.917Z,12.97
2019-02-23T20:58:08.187Z,12.33
2019-02-23T21:00:37.392Z,11.80
2019-02-23T21:03:06.589Z,13.40
2019-02-23T21:05:35.891Z,11.90
2019-02-23T21:08:05.083Z,12.43
2019-02-23T21:10:34.328Z,11.97
2019-02-23T21:13:03.529Z,15.57
2019-02-23T21:15:32.784Z,18.87
2019-02-23T21:18:01.999Z,24.50
2019-02-23T21:20:31.215Z,16.47
2019-02-23T21:23:00.409Z,23.70
2019-02-23T21:25:31.295Z,17.47
2019-02-23T21:28:00.661Z,17.13
2019-02-23T21:30:29.877Z,17.63
2019-02-23T21:32:59.085Z,18.10
2019-02-23T21:35:28.319Z,16.83
2019-02-23T21:37:57.516Z,14.87
2019-02-23T21:40:26.696Z,17.27
2019-02-23T21:42:55.932Z,19.70
2019-02-23T21:45:25.147Z,21.63
2019-02-23T21:47:54.364Z,15.23
2019-02-23T21:50:23.591Z,23.03
2019-02-23T21:52:52.831Z,19.80
2019-02-23T21:55:22.156Z,17.10
2019-02-23T21:57:51.351Z,15.53
2019-02-23T22:00:20.618Z,16.77
2019-02-23T22:02:49.849Z,16.87
2019-02-23T22:05:22.240Z,16.43
2019-02-23T22:07:51.447Z,20.63
2019-02-23T22:10:20.672Z,16.10
2019-02-23T22:12:50.023Z,16.53
2019-02-23T22:15:19.267Z,17.37
2019-02-23T22:17:48.489Z,13.33
2019-02-23T22:20:17.780Z,16.30
2019-02-23T22:22:46.983Z,17.37
2019-02-23T22:25:16.213Z,16.27
2019-02-23T22:27:45.424Z,18.70
2019-02-23T22:30:14.245Z,16.23
2019-02-23T22:32:43.423Z,13.90
2019-02-23T22:35:12.664Z,21.20
2019-02-23T22:37:41.842Z,17.50
2019-02-23T22:40:11.060Z,19.63
2019-02-23T22:42:40.259Z,17.70
2019-02-23T22:45:09.570Z,16.33
2019-02-23T22:47:38.816Z,19.60
2019-02-23T22:50:08.552Z,18.33
2019-02-23T22:52:37.776Z,22.37
2019-02-23T22:55:07.112Z,19.60
2019-02-23T22:57:40.560Z,19.40
2019-02-23T23:00:09.034Z,18.80
2019-02-23T23:02:38.256Z,20.73
2019-02-23T23:05:07.572Z,20.13
2019-02-23T23:07:36.784Z,20.00
2019-02-23T23:10:06.055Z,20.37
2019-02-23T23:12:35.280Z,19.57
2019-02-23T23:15:04.459Z,20.07
2019-02-23T23:17:33.688Z,22.37
2019-02-23T23:20:02.895Z,21.23
2019-02-23T23:22:32.181Z,20.97
2019-02-23T23:25:01.425Z,20.80
2019-02-23T23:27:30.644Z,22.30
2019-02-23T23:29:59.878Z,22.70
2019-02-23T23:32:29.092Z,20.27
2019-02-23T23:34:58.254Z,20.77
2019-02-23T23:37:27.517Z,22.63
2019-02-23T23:39:56.707Z,20.90
2019-02-23T23:42:25.943Z,23.33
2019-02-23T23:44:55.103Z,24.20
2019-02-23T23:47:24.285Z,18.47
2019-02-23T23:49:53.519Z,21.13
2019-02-23T23:52:22.724Z,22.07
2019-02-23T23:54:51.996Z,20.67
2019-02-23T23:57:21.200Z,23.20
2019-02-23T23:59:50.458Z,24.03
